Hauptseite
METAR-TAF:

METAR-TAF

Flughäfen :

Locarno, Schweiz

Flugplatz Locarno

Breite: 46-09-55N, Länge: 8-52-40E, Höhe: 198 m

Beobachtung

Neuester Wetterbericht von vor 47 Minuten, um 18:50 UTC
Wind 7 kt aus Ost/Südost, variierte zwischen Ost und Südost
Temperatur 6°C
Luftfeuchtigkeit 81%
Luftdruck 1014 hPa
Sichtweite 10 km oder mehr
Aufgelockert bewölkt in der Höhe von 9700 ft

METAR: LSZL 221850Z AUTO 11007KT 080V140 9999NDV SCT097 06/03 Q1014 RMK

Zeit: 20:37 (19:37 UTC)

Prognose

Neuester Wetterbericht von vor 8 Stunden und 12 Minuten, um 11:25 UTC
Gültige Prognose vom 22 um 12 UTC bis 22 um 21 UTC
Wind 6 kt aus Ost/Südost
Sichtweite 10 km oder mehr
Leicht bewölkt in der Höhe von 3000 ft
Durchbrochene Bewölkung in der Höhe von 7000 ft

TAF: LSZL 221125Z 2212/2221 11006KT 9999 FEW030 BKN070

Wetterbeobachtungen und Prognosen von mehr als 4000 Flughäfen (METAR und TAF Bericht).

Die verfügbaren Stationen werden durch gelbe und rote Markierungen auf der Karte dargestellt.

Führen Sie die Maus auf sie, um den Namen der Station zu sehen.

Darauf klicken, um die Beobachtung von Wetterbeobachtungen und Prognosen zu sehen.

Um die Karte zu ändern : klicken Sie auf den grünen Tasten mit einem schwarzen Kreuz Zum Vergrößern, auf den grünen Button mit einem Gedankenstrich zu verkleinern, oder auf die grünen Pfeile für benachbarte Karten.


METAR-TAF: